createdAt,value
2018-03-19T00:01:44.679Z,-0.80
2018-03-19T00:04:10.627Z,-1.40
2018-03-19T00:06:36.572Z,-1.35
2018-03-19T00:09:02.528Z,-1.40
2018-03-19T00:11:28.465Z,-1.39
2018-03-19T00:13:54.431Z,-1.40
2018-03-19T00:16:20.367Z,-1.17
2018-03-19T00:18:46.317Z,-1.52
2018-03-19T00:21:12.259Z,-1.49
2018-03-19T00:23:38.250Z,-1.31
2018-03-19T00:26:04.195Z,-1.27
2018-03-19T00:28:30.173Z,-1.35
2018-03-19T00:30:56.137Z,-1.23
2018-03-19T00:33:22.091Z,-1.10
2018-03-19T00:35:48.081Z,-1.08
2018-03-19T00:38:14.052Z,-1.33
2018-03-19T00:40:40.005Z,-1.33
2018-03-19T00:43:05.969Z,-1.25
2018-03-19T00:45:31.906Z,-1.06
2018-03-19T00:47:57.906Z,-1.50
2018-03-19T00:50:23.876Z,-1.30
2018-03-19T00:52:49.822Z,-1.15
2018-03-19T00:55:15.761Z,-1.28
2018-03-19T00:57:41.707Z,-0.87
2018-03-19T01:00:07.644Z,-1.25
2018-03-19T01:02:33.602Z,-1.11
2018-03-19T01:04:59.560Z,-1.08
2018-03-19T01:07:25.503Z,-1.19
2018-03-19T01:09:51.430Z,-1.31
2018-03-19T01:12:17.393Z,-0.89
2018-03-19T01:14:43.349Z,-1.18
2018-03-19T01:17:09.330Z,-1.26
2018-03-19T01:19:35.285Z,-1.10
2018-03-19T01:22:01.244Z,-1.04
2018-03-19T01:24:27.197Z,-1.20
2018-03-19T01:26:53.148Z,-1.45
2018-03-19T01:29:19.102Z,-1.48
2018-03-19T01:31:45.040Z,-0.80
2018-03-19T01:34:10.973Z,-0.97
2018-03-19T01:36:36.914Z,-1.09
2018-03-19T01:39:02.838Z,-1.37
2018-03-19T01:41:28.786Z,-1.40
2018-03-19T01:43:54.730Z,-1.38
2018-03-19T01:46:20.692Z,-1.43
2018-03-19T01:48:46.637Z,-1.28
2018-03-19T01:51:12.578Z,-1.26
2018-03-19T01:53:38.509Z,-1.15
2018-03-19T01:56:04.455Z,-1.21
2018-03-19T01:58:30.415Z,-1.48
2018-03-19T02:00:56.355Z,-1.39
2018-03-19T02:03:22.306Z,-1.40
2018-03-19T02:05:48.238Z,-1.73
2018-03-19T02:08:14.186Z,-1.54
2018-03-19T02:10:40.150Z,-1.36
2018-03-19T02:13:06.112Z,-1.62
2018-03-19T02:15:32.072Z,-1.88
2018-03-19T02:17:58.021Z,-1.66
2018-03-19T02:23:09.749Z,-1.68
2018-03-19T02:25:35.857Z,-1.81
2018-03-19T02:28:01.817Z,-1.71
2018-03-19T02:30:27.760Z,-1.44
2018-03-19T02:32:53.754Z,-1.60
2018-03-19T02:35:19.674Z,-1.52
2018-03-19T02:37:45.635Z,-1.53
2018-03-19T02:40:11.604Z,-1.99
2018-03-19T02:42:37.555Z,-1.74
2018-03-19T02:45:03.521Z,-1.81
2018-03-19T02:47:29.477Z,-1.88
2018-03-19T02:49:55.430Z,-1.75
2018-03-19T02:52:21.406Z,-1.84
2018-03-19T02:54:47.345Z,-1.81
2018-03-19T02:57:13.324Z,-1.94
2018-03-19T02:59:39.273Z,-1.86
2018-03-19T03:02:05.207Z,-1.65
2018-03-19T03:04:31.149Z,-1.36
2018-03-19T03:06:57.080Z,-1.89
2018-03-19T03:09:23.029Z,-1.97
2018-03-19T03:11:48.984Z,-1.83
2018-03-19T03:14:14.967Z,-1.93
2018-03-19T03:16:40.917Z,-2.06
2018-03-19T03:19:06.877Z,-1.84
2018-03-19T03:21:32.841Z,-1.74
2018-03-19T03:23:58.797Z,-2.09
2018-03-19T03:26:24.737Z,-1.99
2018-03-19T03:28:50.699Z,-2.02
2018-03-19T03:31:16.655Z,-2.06
2018-03-19T03:33:42.597Z,-2.05
2018-03-19T03:36:08.553Z,-2.05
2018-03-19T03:38:34.492Z,-1.92
2018-03-19T03:41:00.466Z,-2.03
2018-03-19T03:43:26.397Z,-1.96
2018-03-19T03:45:52.362Z,-2.00
2018-03-19T03:48:18.347Z,-2.35
2018-03-19T03:50:44.309Z,-2.36
2018-03-19T03:53:10.252Z,-2.22
2018-03-19T03:55:36.241Z,-2.08
2018-03-19T03:58:02.165Z,-2.04
2018-03-19T04:00:28.111Z,-1.97
2018-03-19T04:02:54.042Z,-2.03
2018-03-19T04:05:20.014Z,-2.03
2018-03-19T04:07:45.968Z,-2.06
2018-03-19T04:10:11.945Z,-1.96
2018-03-19T04:12:37.907Z,-2.09
2018-03-19T04:15:03.867Z,-2.14
2018-03-19T04:17:29.813Z,-2.39
2018-03-19T04:19:55.798Z,-2.53
2018-03-19T04:22:21.786Z,-2.47
2018-03-19T04:24:47.760Z,-2.48
2018-03-19T04:27:13.728Z,-2.20
2018-03-19T04:29:39.706Z,-2.47
2018-03-19T04:32:05.658Z,-2.48
2018-03-19T04:34:31.629Z,-2.49
2018-03-19T04:36:57.587Z,-2.49
2018-03-19T04:39:23.560Z,-2.39
2018-03-19T04:41:49.505Z,-2.44
2018-03-19T04:44:15.555Z,-2.47
2018-03-19T04:46:41.506Z,-2.42
2018-03-19T04:49:07.452Z,-2.46
2018-03-19T04:51:33.412Z,-2.49
2018-03-19T04:53:59.362Z,-2.46
2018-03-19T04:56:25.310Z,-2.50
2018-03-19T04:58:51.300Z,-2.39
2018-03-19T05:01:17.270Z,-2.41
2018-03-19T05:03:43.230Z,-2.60
2018-03-19T05:06:10.298Z,-2.50
2018-03-19T05:08:36.262Z,-2.60
2018-03-19T05:11:02.238Z,-2.46
2018-03-19T05:13:28.194Z,-2.52
2018-03-19T05:15:54.142Z,-2.62
2018-03-19T05:18:20.086Z,-2.56
2018-03-19T05:20:46.057Z,-2.49
2018-03-19T05:23:12.022Z,-2.40
2018-03-19T05:25:37.994Z,-2.69
2018-03-19T05:28:03.936Z,-2.49
2018-03-19T05:30:29.888Z,-2.58
2018-03-19T05:32:55.842Z,-2.56
2018-03-19T05:35:21.808Z,-2.58
2018-03-19T05:37:48.200Z,-2.42
2018-03-19T05:40:14.168Z,-2.48
2018-03-19T05:42:40.135Z,-2.58
2018-03-19T05:45:06.091Z,-2.70
2018-03-19T05:47:32.050Z,-2.67
2018-03-19T05:49:58.015Z,-2.62
2018-03-19T05:52:23.949Z,-2.45
2018-03-19T05:54:49.895Z,-2.35
2018-03-19T05:57:15.854Z,-2.30
2018-03-19T05:59:41.818Z,-2.16
2018-03-19T06:02:07.775Z,-2.01
2018-03-19T06:04:33.740Z,-1.94
2018-03-19T06:06:59.740Z,-1.87
2018-03-19T06:09:25.710Z,-2.03
2018-03-19T06:11:51.695Z,-1.82
2018-03-19T06:14:18.763Z,-1.33
2018-03-19T06:16:44.723Z,-1.21
2018-03-19T06:19:10.689Z,-1.02
2018-03-19T06:21:36.619Z,-1.33
2018-03-19T06:24:02.549Z,-1.17
2018-03-19T06:26:28.482Z,-0.96
2018-03-19T06:28:54.435Z,-1.01
2018-03-19T06:31:20.381Z,-0.92
2018-03-19T06:33:46.352Z,-0.91
2018-03-19T06:36:12.280Z,-0.43
2018-03-19T06:38:38.249Z,-0.20
2018-03-19T06:41:04.201Z,-0.35
2018-03-19T06:43:30.157Z,-0.35
2018-03-19T06:45:56.124Z,-0.63
2018-03-19T06:48:22.102Z,-0.49
2018-03-19T06:50:48.059Z,-0.73
2018-03-19T06:53:13.987Z,0.21
2018-03-19T06:55:39.960Z,0.61
2018-03-19T06:58:05.909Z,0.74
2018-03-19T07:00:31.859Z,0.88
2018-03-19T07:02:57.885Z,1.02
2018-03-19T07:05:23.909Z,1.18
2018-03-19T07:07:49.941Z,1.34
2018-03-19T07:10:15.893Z,1.28
2018-03-19T07:12:41.833Z,0.97
2018-03-19T07:15:07.790Z,1.15
2018-03-19T07:17:33.746Z,1.60
2018-03-19T07:19:59.692Z,1.86
2018-03-19T07:22:25.631Z,2.52
2018-03-19T07:24:51.598Z,2.01
2018-03-19T07:27:17.567Z,1.19
2018-03-19T07:29:43.534Z,2.41
2018-03-19T07:32:09.465Z,0.78
2018-03-19T07:34:35.476Z,0.43
2018-03-19T07:37:01.401Z,1.05
2018-03-19T07:39:27.397Z,1.45
2018-03-19T07:41:53.377Z,1.93
2018-03-19T07:44:19.343Z,2.10
2018-03-19T07:46:45.291Z,3.21
2018-03-19T07:49:11.242Z,1.88
2018-03-19T07:51:37.215Z,1.96
2018-03-19T07:54:03.150Z,2.60
2018-03-19T07:56:29.098Z,3.12
2018-03-19T07:58:55.050Z,4.25
2018-03-19T08:01:21.016Z,3.58
2018-03-19T08:03:46.960Z,4.45
2018-03-19T08:06:12.891Z,3.95
2018-03-19T08:08:38.826Z,4.37
2018-03-19T08:11:04.777Z,3.91
2018-03-19T08:13:30.732Z,4.28
2018-03-19T08:15:56.691Z,3.68
2018-03-19T08:18:22.656Z,2.73
2018-03-19T08:20:48.591Z,1.81
2018-03-19T08:23:14.564Z,2.27
2018-03-19T08:25:40.506Z,1.58
2018-03-19T08:28:06.446Z,1.50
2018-03-19T08:30:32.405Z,1.95
2018-03-19T08:32:59.465Z,1.84
2018-03-19T08:35:25.403Z,1.75
2018-03-19T08:37:51.367Z,1.36
2018-03-19T08:40:17.350Z,1.80
2018-03-19T08:42:43.313Z,2.41
2018-03-19T08:45:09.242Z,2.94
2018-03-19T08:47:35.206Z,3.29
2018-03-19T08:50:01.163Z,1.71
2018-03-19T08:52:27.122Z,2.18
2018-03-19T08:54:53.058Z,2.37
2018-03-19T08:57:19.018Z,1.64
2018-03-19T08:59:44.969Z,1.73
2018-03-19T09:02:10.928Z,1.82
2018-03-19T09:04:36.878Z,1.58
2018-03-19T09:07:02.830Z,1.26
2018-03-19T09:09:28.762Z,1.48
2018-03-19T09:11:54.690Z,1.11
2018-03-19T09:14:20.651Z,1.10
2018-03-19T09:16:46.646Z,1.47
2018-03-19T09:19:12.604Z,1.51
2018-03-19T09:21:38.581Z,2.11
2018-03-19T09:24:04.522Z,1.59
2018-03-19T09:26:30.469Z,1.52
2018-03-19T09:28:56.418Z,1.46
2018-03-19T09:31:22.380Z,2.02
2018-03-19T09:33:48.320Z,1.57
2018-03-19T09:36:14.254Z,1.32
2018-03-19T09:38:40.194Z,1.61
2018-03-19T09:41:06.166Z,1.72
2018-03-19T09:43:32.118Z,1.86
2018-03-19T09:45:58.087Z,1.50
2018-03-19T09:48:24.023Z,1.51
2018-03-19T09:50:49.990Z,1.46
2018-03-19T09:53:15.934Z,2.00
2018-03-19T09:55:41.888Z,1.88
2018-03-19T09:58:07.816Z,1.15
2018-03-19T10:00:33.778Z,1.64
2018-03-19T10:02:59.724Z,0.86
2018-03-19T10:05:25.671Z,0.40
2018-03-19T10:07:51.619Z,0.71
2018-03-19T10:10:17.584Z,0.90
2018-03-19T10:12:43.555Z,1.34
2018-03-19T10:15:09.541Z,1.21
2018-03-19T10:17:35.487Z,0.96
2018-03-19T10:20:01.428Z,1.06
2018-03-19T10:22:27.801Z,1.15
2018-03-19T10:24:53.756Z,1.46
2018-03-19T10:27:19.709Z,1.14
2018-03-19T10:29:45.683Z,1.36
2018-03-19T10:32:11.632Z,1.45
2018-03-19T10:34:37.593Z,1.46
2018-03-19T10:37:03.550Z,1.56
2018-03-19T10:39:29.495Z,1.24
2018-03-19T10:41:55.422Z,1.03
2018-03-19T10:44:21.378Z,0.87
2018-03-19T10:46:47.323Z,1.39
2018-03-19T10:49:13.246Z,1.56
2018-03-19T10:51:39.209Z,1.65
2018-03-19T10:54:05.177Z,1.38
2018-03-19T10:56:31.118Z,1.24
2018-03-19T10:58:57.057Z,0.48
2018-03-19T11:01:23.028Z,0.83
2018-03-19T11:03:48.945Z,0.67
2018-03-19T11:06:14.898Z,1.43
2018-03-19T11:08:40.859Z,1.49
2018-03-19T11:11:06.806Z,1.66
2018-03-19T11:13:32.763Z,1.55
2018-03-19T11:15:58.707Z,0.95
2018-03-19T11:18:24.660Z,1.20
2018-03-19T11:20:50.613Z,1.57
2018-03-19T11:23:16.572Z,1.66
2018-03-19T11:25:42.520Z,1.83
2018-03-19T11:28:08.487Z,1.85
2018-03-19T11:30:34.445Z,1.80
2018-03-19T11:33:00.423Z,1.81
2018-03-19T11:35:26.393Z,1.70
2018-03-19T11:37:52.358Z,1.41
2018-03-19T11:40:18.311Z,1.12
2018-03-19T11:42:44.251Z,1.43
2018-03-19T11:45:10.278Z,1.45
2018-03-19T11:47:36.252Z,1.79
2018-03-19T11:50:02.203Z,1.87
2018-03-19T11:52:28.167Z,0.38
2018-03-19T11:54:54.147Z,1.46
2018-03-19T11:57:20.129Z,1.63
2018-03-19T11:59:46.079Z,2.05
2018-03-19T12:02:12.057Z,2.21
2018-03-19T12:04:38.001Z,2.01
2018-03-19T12:07:04.155Z,2.06
2018-03-19T12:09:30.117Z,1.88
2018-03-19T12:11:56.074Z,1.93
2018-03-19T12:14:22.041Z,2.11
2018-03-19T12:16:47.980Z,1.87
2018-03-19T12:19:13.929Z,2.14
2018-03-19T12:21:39.909Z,2.13
2018-03-19T12:24:05.884Z,1.96
2018-03-19T12:26:31.834Z,2.35
2018-03-19T12:28:57.801Z,2.17
2018-03-19T12:31:23.777Z,2.16
2018-03-19T12:33:49.728Z,2.40
2018-03-19T12:36:15.668Z,2.22
2018-03-19T12:38:41.642Z,2.27
2018-03-19T12:41:07.578Z,2.22
2018-03-19T12:43:33.546Z,2.03
2018-03-19T12:45:59.508Z,1.93
2018-03-19T12:48:25.481Z,2.29
2018-03-19T12:50:51.447Z,2.48
2018-03-19T12:53:17.402Z,2.61
2018-03-19T12:55:43.349Z,2.51
2018-03-19T12:58:09.299Z,2.64
2018-03-19T13:00:35.230Z,2.69
2018-03-19T13:03:01.253Z,2.60
2018-03-19T13:05:27.206Z,2.52
2018-03-19T13:07:53.151Z,2.37
2018-03-19T13:10:19.112Z,2.71
2018-03-19T13:12:45.078Z,2.50
2018-03-19T13:15:11.047Z,2.45
2018-03-19T13:17:37.011Z,2.41
2018-03-19T13:20:02.965Z,2.61
2018-03-19T13:22:28.925Z,2.73
2018-03-19T13:24:54.870Z,3.07
2018-03-19T13:27:20.850Z,2.78
2018-03-19T13:29:46.809Z,2.64
2018-03-19T13:32:12.742Z,2.63
2018-03-19T13:34:39.799Z,2.76
2018-03-19T13:37:05.760Z,2.90
2018-03-19T13:39:31.730Z,3.03
2018-03-19T13:41:57.664Z,2.81
2018-03-19T13:44:23.641Z,2.96
2018-03-19T13:46:49.638Z,3.12
2018-03-19T13:49:15.598Z,2.98
2018-03-19T13:51:41.537Z,2.78
2018-03-19T13:54:07.478Z,2.88
2018-03-19T13:56:33.420Z,2.96
2018-03-19T13:58:59.377Z,2.76
2018-03-19T14:01:25.356Z,2.82
2018-03-19T14:03:51.306Z,2.77
2018-03-19T14:06:17.246Z,2.83
2018-03-19T14:08:43.207Z,2.84
2018-03-19T14:11:09.191Z,3.02
2018-03-19T14:13:35.146Z,3.19
2018-03-19T14:16:01.096Z,2.99
2018-03-19T14:18:27.150Z,3.21
2018-03-19T14:20:53.100Z,3.28
2018-03-19T14:23:19.082Z,3.12
2018-03-19T14:25:45.074Z,3.06
2018-03-19T14:28:11.077Z,3.18
2018-03-19T14:30:37.019Z,3.27
2018-03-19T14:33:02.975Z,3.23
2018-03-19T14:35:28.954Z,3.13
2018-03-19T14:37:54.926Z,3.18
2018-03-19T14:40:20.874Z,3.21
2018-03-19T14:42:46.852Z,3.21
2018-03-19T14:45:12.787Z,3.14
2018-03-19T14:47:38.760Z,3.17
2018-03-19T14:50:04.724Z,3.24
2018-03-19T14:52:30.696Z,3.28
2018-03-19T14:54:56.667Z,3.21
2018-03-19T14:57:22.642Z,3.28
2018-03-19T14:59:48.653Z,3.32
2018-03-19T15:02:14.602Z,3.18
2018-03-19T15:04:40.650Z,3.18
2018-03-19T15:07:06.606Z,3.29
2018-03-19T15:09:32.575Z,3.42
2018-03-19T15:11:58.560Z,3.26
2018-03-19T15:14:24.478Z,3.35
2018-03-19T15:16:50.423Z,3.09
2018-03-19T15:19:16.371Z,3.22
2018-03-19T15:21:42.350Z,3.36
2018-03-19T15:24:08.409Z,3.48
2018-03-19T15:26:34.359Z,3.61
2018-03-19T15:29:00.311Z,3.48
2018-03-19T15:31:26.241Z,3.50
2018-03-19T15:33:52.179Z,3.53
2018-03-19T15:36:18.232Z,3.33
2018-03-19T15:38:44.171Z,3.33
2018-03-19T15:41:10.111Z,3.41
2018-03-19T15:43:36.058Z,3.48
2018-03-19T15:46:02.021Z,3.36
2018-03-19T15:48:27.971Z,3.38
2018-03-19T15:50:53.935Z,3.22
2018-03-19T15:53:19.911Z,3.08
2018-03-19T15:55:45.850Z,3.15
2018-03-19T15:58:11.801Z,3.11
2018-03-19T16:00:37.761Z,3.18
2018-03-19T16:03:03.742Z,3.01
2018-03-19T16:05:29.741Z,3.18
2018-03-19T16:07:55.679Z,3.35
2018-03-19T16:10:21.623Z,3.45
2018-03-19T16:12:47.792Z,3.32
2018-03-19T16:15:13.747Z,3.28
2018-03-19T16:17:39.764Z,3.17
2018-03-19T16:20:05.719Z,3.27
2018-03-19T16:22:31.709Z,3.17
2018-03-19T16:24:57.645Z,3.20
2018-03-19T16:27:23.662Z,3.29
2018-03-19T16:29:49.606Z,3.42
2018-03-19T16:32:15.551Z,3.42
2018-03-19T16:34:41.497Z,3.31
2018-03-19T16:37:07.447Z,3.45
2018-03-19T16:39:33.421Z,3.50
2018-03-19T16:41:59.370Z,3.43
2018-03-19T16:44:25.316Z,3.40
2018-03-19T16:46:51.249Z,3.36
2018-03-19T16:49:17.214Z,3.42
2018-03-19T16:51:43.180Z,3.35
2018-03-19T16:54:09.127Z,3.42
2018-03-19T16:56:35.056Z,3.40
2018-03-19T16:59:00.997Z,3.36
2018-03-19T17:01:26.948Z,3.30
2018-03-19T17:03:52.907Z,3.29
2018-03-19T17:06:18.854Z,3.21
2018-03-19T17:11:17.108Z,3.18
2018-03-19T17:13:43.098Z,3.24
2018-03-19T17:16:09.084Z,3.23
2018-03-19T17:18:35.034Z,3.21
2018-03-19T17:21:00.973Z,3.26
2018-03-19T17:23:26.912Z,3.35
2018-03-19T17:25:52.990Z,3.19
2018-03-19T17:28:19.023Z,3.25
2018-03-19T17:30:45.043Z,3.25
2018-03-19T17:33:10.969Z,3.01
2018-03-19T17:35:37.008Z,3.11
2018-03-19T17:38:03.023Z,3.18
2018-03-19T17:40:28.957Z,3.08
2018-03-19T17:42:54.909Z,2.99
2018-03-19T17:45:20.864Z,3.02
2018-03-19T17:47:46.796Z,2.98
2018-03-19T17:50:12.747Z,2.94
2018-03-19T17:52:38.701Z,3.04
2018-03-19T17:55:04.661Z,3.03
2018-03-19T17:57:30.595Z,3.53
2018-03-19T17:59:56.544Z,3.41
2018-03-19T18:02:22.537Z,3.64
2018-03-19T18:04:48.483Z,3.76
2018-03-19T18:07:14.423Z,3.59
2018-03-19T18:09:40.377Z,3.32
2018-03-19T18:12:06.334Z,3.16
2018-03-19T18:14:32.293Z,3.15
2018-03-19T18:16:58.265Z,3.02
2018-03-19T18:19:24.213Z,3.22
2018-03-19T18:21:50.172Z,3.27
2018-03-19T18:24:16.139Z,3.08
2018-03-19T18:26:42.095Z,3.07
2018-03-19T18:29:08.049Z,3.12
2018-03-19T18:31:34.033Z,3.11
2018-03-19T18:34:00.025Z,2.99
2018-03-19T18:36:25.984Z,2.89
2018-03-19T18:38:51.915Z,3.12
2018-03-19T18:41:19.056Z,3.18
2018-03-19T18:43:45.132Z,3.03
2018-03-19T18:46:11.085Z,2.98
2018-03-19T18:48:37.039Z,3.05
2018-03-19T18:51:02.993Z,3.05
2018-03-19T18:53:28.955Z,2.96
2018-03-19T18:55:54.900Z,3.16
2018-03-19T18:58:20.848Z,3.09
2018-03-19T19:00:46.813Z,3.01
2018-03-19T19:03:12.755Z,3.09
2018-03-19T19:05:38.742Z,3.36
2018-03-19T19:08:04.730Z,3.00
2018-03-19T19:10:30.631Z,2.74
2018-03-19T19:12:56.610Z,2.88
2018-03-19T19:15:22.559Z,2.94
2018-03-19T19:17:48.518Z,3.11
2018-03-19T19:20:14.486Z,2.85
2018-03-19T19:22:40.465Z,2.68
2018-03-19T19:25:06.438Z,2.80
2018-03-19T19:27:33.455Z,2.72
2018-03-19T19:29:59.439Z,2.69
2018-03-19T19:32:25.387Z,2.58
2018-03-19T19:34:51.551Z,2.58
2018-03-19T19:37:17.556Z,2.61
2018-03-19T19:39:43.542Z,2.88
2018-03-19T19:42:09.516Z,2.67
2018-03-19T19:44:35.497Z,2.67
2018-03-19T19:47:01.604Z,2.50
2018-03-19T19:49:27.570Z,2.36
2018-03-19T19:51:53.628Z,2.40
2018-03-19T19:54:19.590Z,2.29
2018-03-19T19:56:45.542Z,2.07
2018-03-19T19:59:11.538Z,2.03
2018-03-19T20:01:37.551Z,2.25
2018-03-19T20:04:03.531Z,2.13
2018-03-19T20:06:29.520Z,2.21
2018-03-19T20:08:55.539Z,2.17
2018-03-19T20:11:21.814Z,2.13
2018-03-19T20:13:47.847Z,2.13
2018-03-19T20:16:13.819Z,1.96
2018-03-19T20:18:39.777Z,1.96
2018-03-19T20:21:05.777Z,1.98
2018-03-19T20:23:31.763Z,1.94
2018-03-19T20:25:57.716Z,1.65
2018-03-19T20:28:23.804Z,1.68
2018-03-19T20:30:49.725Z,1.74
2018-03-19T20:33:15.691Z,1.84
2018-03-19T20:35:41.647Z,1.75
2018-03-19T20:38:07.607Z,1.69
2018-03-19T20:40:33.568Z,1.82
2018-03-19T20:42:59.615Z,1.72
2018-03-19T20:45:25.564Z,1.58
2018-03-19T20:47:51.534Z,1.65
2018-03-19T20:50:17.501Z,1.72
2018-03-19T20:52:43.475Z,1.53
2018-03-19T20:55:09.448Z,1.62
2018-03-19T20:57:35.398Z,1.64
2018-03-19T21:00:01.343Z,1.54
2018-03-19T21:02:27.313Z,1.46
2018-03-19T21:04:53.275Z,1.26
2018-03-19T21:07:19.243Z,1.23
2018-03-19T21:09:45.187Z,1.38
2018-03-19T21:12:11.183Z,1.41
2018-03-19T21:14:37.137Z,1.42
2018-03-19T21:17:03.114Z,1.38
2018-03-19T21:19:29.083Z,1.41
2018-03-19T21:21:55.039Z,1.21
2018-03-19T21:24:20.979Z,1.16
2018-03-19T21:26:46.960Z,1.14
2018-03-19T21:29:12.958Z,1.31
2018-03-19T21:31:38.927Z,0.91
2018-03-19T21:34:04.889Z,1.13
2018-03-19T21:36:30.849Z,1.00
2018-03-19T21:38:56.797Z,0.86
2018-03-19T21:41:22.755Z,0.94
2018-03-19T21:43:48.793Z,0.71
2018-03-19T21:46:14.738Z,0.84
2018-03-19T21:48:40.687Z,0.74
2018-03-19T21:51:06.654Z,0.67
2018-03-19T21:53:32.643Z,0.82
2018-03-19T21:55:58.583Z,0.96
2018-03-19T21:58:24.543Z,0.87
2018-03-19T22:00:50.487Z,0.98
2018-03-19T22:03:16.438Z,0.91
2018-03-19T22:05:42.429Z,0.76
2018-03-19T22:08:08.403Z,0.78
2018-03-19T22:10:34.354Z,0.83
2018-03-19T22:13:00.332Z,0.91
2018-03-19T22:15:26.282Z,0.85
2018-03-19T22:17:52.240Z,1.02
2018-03-19T22:20:18.225Z,1.29
2018-03-19T22:22:44.205Z,1.28
2018-03-19T22:25:10.217Z,1.52
2018-03-19T22:27:36.163Z,1.65
2018-03-19T22:30:02.134Z,1.62
2018-03-19T22:32:28.106Z,1.70
2018-03-19T22:34:54.058Z,1.46
2018-03-19T22:37:20.026Z,1.31
2018-03-19T22:39:45.981Z,1.25
2018-03-19T22:42:11.954Z,1.32
2018-03-19T22:44:37.901Z,1.37
2018-03-19T22:47:03.845Z,1.20
2018-03-19T22:49:29.805Z,1.14
2018-03-19T22:51:55.788Z,1.02
2018-03-19T22:54:21.725Z,1.21
2018-03-19T22:56:47.672Z,1.22
2018-03-19T22:59:13.622Z,1.06
2018-03-19T23:01:39.582Z,0.95
2018-03-19T23:04:05.514Z,1.05
2018-03-19T23:06:31.478Z,0.88
2018-03-19T23:08:57.417Z,1.17
2018-03-19T23:11:23.355Z,1.20
2018-03-19T23:13:49.290Z,0.65
2018-03-19T23:16:15.253Z,0.60
2018-03-19T23:18:41.197Z,0.60
2018-03-19T23:21:07.141Z,0.64
2018-03-19T23:23:33.073Z,0.45
2018-03-19T23:25:59.021Z,0.47
2018-03-19T23:28:24.962Z,0.49
2018-03-19T23:30:50.932Z,0.63
2018-03-19T23:33:16.886Z,0.58
2018-03-19T23:35:42.837Z,0.41
2018-03-19T23:38:08.784Z,0.54
2018-03-19T23:40:34.718Z,0.45
2018-03-19T23:43:00.645Z,0.33
2018-03-19T23:45:26.585Z,0.65
2018-03-19T23:47:52.550Z,0.74
2018-03-19T23:50:18.512Z,0.71
2018-03-19T23:52:44.463Z,0.78
2018-03-19T23:55:10.430Z,0.66
2018-03-19T23:57:36.376Z,0.28
